createdAt,value
2018-04-18T00:00:50.272Z,0.00
2018-04-18T00:01:50.168Z,0.00
2018-04-18T00:02:50.065Z,0.00
2018-04-18T00:03:49.974Z,0.00
2018-04-18T00:04:49.873Z,0.00
2018-04-18T00:05:49.768Z,0.00
2018-04-18T00:06:49.665Z,0.00
2018-04-18T00:07:49.574Z,0.00
2018-04-18T00:08:49.470Z,0.00
2018-04-18T00:09:49.367Z,0.00
2018-04-18T00:10:49.263Z,0.00
2018-04-18T00:11:49.173Z,0.00
2018-04-18T00:12:49.071Z,0.00
2018-04-18T00:13:48.967Z,0.00
2018-04-18T00:14:48.863Z,0.00
2018-04-18T00:15:48.772Z,0.00
2018-04-18T00:16:48.669Z,0.00
2018-04-18T00:17:48.566Z,0.00
2018-04-18T00:18:48.461Z,0.00
2018-04-18T00:19:48.360Z,0.00
2018-04-18T00:20:48.269Z,0.00
2018-04-18T00:21:48.172Z,0.00
2018-04-18T00:22:48.061Z,0.00
2018-04-18T00:23:47.982Z,0.00
2018-04-18T00:24:47.867Z,0.00
2018-04-18T00:25:47.764Z,0.00
2018-04-18T00:26:47.711Z,0.00
2018-04-18T00:27:47.560Z,0.00
2018-04-18T00:28:47.467Z,0.00
2018-04-18T00:29:47.364Z,0.00
2018-04-18T00:30:47.260Z,0.00
2018-04-18T00:31:47.158Z,0.00
2018-04-18T00:32:47.065Z,0.00
2018-04-18T00:33:46.962Z,0.00
2018-04-18T00:34:46.859Z,0.00
2018-04-18T00:35:46.955Z,0.00
2018-04-18T00:36:46.666Z,0.00
2018-04-18T00:37:46.563Z,0.00
2018-04-18T00:38:46.458Z,0.00
2018-04-18T00:39:46.356Z,0.00
2018-04-18T00:40:46.268Z,0.00
2018-04-18T00:41:46.160Z,0.00
2018-04-18T00:42:46.058Z,0.00
2018-04-18T00:43:45.958Z,0.00
2018-04-18T00:44:45.865Z,0.00
2018-04-18T00:45:45.761Z,0.00
2018-04-18T00:46:45.661Z,0.00
2018-04-18T00:47:45.554Z,0.00
2018-04-18T00:48:45.452Z,0.00
2018-04-18T00:49:45.360Z,0.00
2018-04-18T00:50:45.257Z,0.00
2018-04-18T00:51:45.155Z,0.00
2018-04-18T00:52:45.050Z,0.00
2018-04-18T00:53:44.949Z,0.00
2018-04-18T00:54:44.856Z,0.00
2018-04-18T00:55:44.753Z,0.00
2018-04-18T00:56:44.650Z,0.00
2018-04-18T00:57:44.546Z,0.00
2018-04-18T00:58:44.455Z,0.00
2018-04-18T00:59:44.351Z,0.00
2018-04-18T01:00:44.249Z,0.00
2018-04-18T01:01:44.146Z,0.00
2018-04-18T01:02:44.056Z,0.00
2018-04-18T01:03:43.952Z,0.00
2018-04-18T01:04:43.885Z,0.00
2018-04-18T01:05:43.996Z,0.00
2018-04-18T01:06:43.641Z,0.00
2018-04-18T01:07:43.550Z,0.00
2018-04-18T01:08:43.447Z,0.00
2018-04-18T01:09:43.345Z,0.00
2018-04-18T01:10:43.240Z,0.00
2018-04-18T01:11:43.164Z,0.00
2018-04-18T01:12:43.046Z,0.00
2018-04-18T01:13:42.943Z,0.00
2018-04-18T01:14:42.849Z,0.00
2018-04-18T01:15:42.737Z,0.00
2018-04-18T01:16:42.645Z,0.00
2018-04-18T01:17:42.547Z,0.00
2018-04-18T01:18:42.440Z,0.00
2018-04-18T01:19:42.335Z,0.00
2018-04-18T01:20:42.233Z,0.00
2018-04-18T01:21:42.142Z,0.00
2018-04-18T01:22:42.039Z,0.00
2018-04-18T01:23:41.936Z,0.00
2018-04-18T01:24:41.832Z,0.00
2018-04-18T01:25:41.729Z,0.00
2018-04-18T01:26:41.637Z,0.00
2018-04-18T01:27:41.534Z,0.00
2018-04-18T01:28:41.430Z,0.00
2018-04-18T01:29:41.330Z,0.00
2018-04-18T01:30:41.237Z,0.00
2018-04-18T01:31:41.135Z,0.00
2018-04-18T01:32:41.031Z,0.00
2018-04-18T01:33:40.928Z,0.00
2018-04-18T01:34:40.824Z,0.00
2018-04-18T01:35:40.970Z,0.00
2018-04-18T01:36:40.628Z,0.00
2018-04-18T01:37:40.529Z,0.00
2018-04-18T01:38:40.421Z,0.00
2018-04-18T01:39:40.319Z,0.00
2018-04-18T01:40:40.223Z,0.00
2018-04-18T01:41:40.128Z,0.00
2018-04-18T01:42:40.024Z,0.00
2018-04-18T01:43:39.918Z,0.00
2018-04-18T01:44:39.816Z,0.00
2018-04-18T01:45:40.012Z,0.00
2018-04-18T01:46:39.622Z,0.00
2018-04-18T01:47:39.516Z,0.00
2018-04-18T01:48:39.414Z,0.00
2018-04-18T01:49:39.311Z,0.00
2018-04-18T01:50:39.208Z,0.00
2018-04-18T01:51:39.119Z,0.00
2018-04-18T01:52:39.014Z,0.00
2018-04-18T01:53:38.912Z,0.00
2018-04-18T01:54:38.807Z,0.00
2018-04-18T01:55:38.703Z,0.00
2018-04-18T01:56:38.613Z,0.00
2018-04-18T01:57:38.509Z,0.00
2018-04-18T01:58:38.406Z,0.00
2018-04-18T01:59:38.302Z,0.00
2018-04-18T02:00:38.199Z,0.00
2018-04-18T02:01:38.096Z,0.00
2018-04-18T02:02:38.007Z,0.00
2018-04-18T02:03:37.902Z,0.00
2018-04-18T02:04:37.800Z,0.00
2018-04-18T02:05:37.996Z,0.00
2018-04-18T02:06:37.593Z,0.00
2018-04-18T02:07:37.501Z,0.00
2018-04-18T02:08:37.397Z,0.00
2018-04-18T02:09:37.294Z,0.00
2018-04-18T02:10:37.193Z,0.00
2018-04-18T02:11:37.087Z,0.00
2018-04-18T02:12:37.001Z,0.00
2018-04-18T02:13:36.893Z,0.00
2018-04-18T02:14:36.799Z,0.00
2018-04-18T02:15:36.687Z,0.00
2018-04-18T02:16:36.584Z,0.00
2018-04-18T02:17:36.480Z,0.00
2018-04-18T02:18:36.388Z,0.00
2018-04-18T02:19:36.284Z,0.00
2018-04-18T02:20:36.182Z,0.00
2018-04-18T02:21:36.080Z,0.00
2018-04-18T02:22:35.976Z,0.00
2018-04-18T02:23:35.886Z,0.00
2018-04-18T02:24:35.781Z,0.00
2018-04-18T02:25:35.680Z,0.00
2018-04-18T02:26:35.575Z,0.00
2018-04-18T02:27:35.473Z,0.00
2018-04-18T02:28:35.369Z,0.00
2018-04-18T02:29:35.277Z,0.00
2018-04-18T02:30:35.174Z,0.00
2018-04-18T02:31:35.070Z,0.00
2018-04-18T02:32:34.967Z,0.00
2018-04-18T02:33:34.876Z,0.00
2018-04-18T02:34:34.773Z,0.00
2018-04-18T02:35:34.670Z,0.00
2018-04-18T02:36:34.567Z,0.00
2018-04-18T02:37:34.464Z,0.00
2018-04-18T02:38:34.360Z,0.00
2018-04-18T02:39:34.258Z,0.00
2018-04-18T02:40:34.165Z,0.00
2018-04-18T02:41:34.063Z,0.00
2018-04-18T02:42:33.973Z,0.00
2018-04-18T02:43:33.855Z,0.00
2018-04-18T02:44:33.752Z,0.00
2018-04-18T02:45:33.648Z,0.00
2018-04-18T02:46:33.559Z,0.00
2018-04-18T02:47:33.455Z,0.00
2018-04-18T02:48:33.352Z,0.00
2018-04-18T02:49:33.248Z,0.00
2018-04-18T02:50:33.142Z,0.00
2018-04-18T02:51:33.042Z,0.00
2018-04-18T02:52:32.950Z,0.00
2018-04-18T02:53:32.847Z,0.00
2018-04-18T02:54:32.743Z,0.00
2018-04-18T02:55:32.640Z,0.00
2018-04-18T02:56:32.538Z,0.00
2018-04-18T02:57:32.433Z,0.00
2018-04-18T02:58:32.342Z,0.00
2018-04-18T02:59:32.243Z,0.00
2018-04-18T03:00:32.138Z,0.00
2018-04-18T03:01:32.039Z,0.00
2018-04-18T03:02:31.932Z,0.00
2018-04-18T03:03:31.827Z,0.00
2018-04-18T03:04:31.736Z,0.00
2018-04-18T03:05:31.882Z,0.00
2018-04-18T03:06:31.529Z,0.00
2018-04-18T03:07:31.424Z,0.00
2018-04-18T03:08:31.321Z,0.00
2018-04-18T03:09:31.217Z,0.00
2018-04-18T03:10:31.119Z,0.00
2018-04-18T03:11:31.024Z,0.00
2018-04-18T03:12:30.922Z,0.00
2018-04-18T03:13:30.818Z,0.00
2018-04-18T03:14:30.715Z,0.00
2018-04-18T03:15:30.611Z,0.00
2018-04-18T03:16:30.519Z,0.00
2018-04-18T03:17:30.433Z,0.00
2018-04-18T03:18:30.313Z,0.00
2018-04-18T03:19:30.210Z,0.00
2018-04-18T03:20:30.107Z,0.00
2018-04-18T03:21:30.003Z,0.00
2018-04-18T03:22:29.900Z,0.00
2018-04-18T03:23:29.809Z,0.00
2018-04-18T03:24:29.707Z,0.00
2018-04-18T03:25:29.853Z,0.00
2018-04-18T03:26:29.500Z,0.00
2018-04-18T03:27:29.396Z,0.00
2018-04-18T03:28:29.294Z,0.00
2018-04-18T03:29:29.202Z,4.00
2018-04-18T03:30:29.099Z,4.00
2018-04-18T03:31:28.998Z,0.00
2018-04-18T03:32:28.896Z,4.00
2018-04-18T03:33:28.792Z,4.00
2018-04-18T03:34:28.687Z,4.00
2018-04-18T03:35:28.588Z,4.00
2018-04-18T03:36:28.493Z,8.00
2018-04-18T03:37:28.390Z,8.00
2018-04-18T03:38:28.287Z,8.00
2018-04-18T03:39:28.183Z,8.00
2018-04-18T03:40:28.080Z,12.00
2018-04-18T03:41:27.976Z,12.00
2018-04-18T03:42:27.885Z,16.00
2018-04-18T03:43:27.782Z,16.00
2018-04-18T03:44:27.679Z,20.00
2018-04-18T03:45:27.824Z,24.00
2018-04-18T03:46:27.471Z,28.00
2018-04-18T03:47:27.384Z,32.00
2018-04-18T03:48:27.278Z,36.00
2018-04-18T03:49:27.175Z,44.00
2018-04-18T03:50:27.071Z,48.00
2018-04-18T03:51:26.969Z,56.00
2018-04-18T03:52:26.867Z,64.00
2018-04-18T03:53:26.761Z,72.00
2018-04-18T03:54:26.658Z,84.00
2018-04-18T03:55:26.567Z,92.00
2018-04-18T03:56:26.464Z,100.00
2018-04-18T03:57:26.362Z,112.00
2018-04-18T03:58:26.255Z,128.00
2018-04-18T03:59:26.151Z,140.00
2018-04-18T04:00:26.049Z,156.00
2018-04-18T04:01:25.946Z,176.00
2018-04-18T04:02:25.898Z,188.00
2018-04-18T04:03:25.753Z,204.00
2018-04-18T04:04:25.649Z,224.00
2018-04-18T04:05:25.846Z,240.00
2018-04-18T04:06:25.443Z,264.00
2018-04-18T04:07:25.339Z,284.00
2018-04-18T04:08:25.248Z,308.00
2018-04-18T04:09:25.144Z,328.00
2018-04-18T04:10:25.077Z,356.00
2018-04-18T04:11:24.938Z,376.00
2018-04-18T04:12:24.834Z,404.00
2018-04-18T04:13:24.731Z,428.00
2018-04-18T04:14:24.629Z,452.00
2018-04-18T04:15:24.542Z,484.00
2018-04-18T04:16:24.434Z,516.00
2018-04-18T04:17:24.334Z,552.00
2018-04-18T04:18:24.228Z,588.00
2018-04-18T04:19:24.125Z,624.00
2018-04-18T04:20:24.021Z,664.00
2018-04-18T04:21:23.979Z,704.00
2018-04-18T04:22:23.826Z,748.00
2018-04-18T04:23:23.735Z,792.00
2018-04-18T04:24:23.619Z,836.00
2018-04-18T04:25:23.818Z,884.00
2018-04-18T04:26:23.413Z,928.00
2018-04-18T04:27:23.323Z,976.00
2018-04-18T04:28:23.244Z,1028.00
2018-04-18T04:29:23.116Z,1072.00
2018-04-18T04:30:23.013Z,1120.00
2018-04-18T04:31:22.911Z,1172.00
2018-04-18T04:32:22.830Z,1220.00
2018-04-18T04:33:22.727Z,1268.00
2018-04-18T04:34:22.611Z,1316.00
2018-04-18T04:35:22.508Z,1360.00
2018-04-18T04:36:22.405Z,1404.00
2018-04-18T04:37:22.303Z,1456.00
2018-04-18T04:38:22.213Z,1480.00
2018-04-18T04:39:22.110Z,1524.00
2018-04-18T04:40:22.006Z,1564.00
2018-04-18T04:41:21.904Z,1604.00
2018-04-18T04:42:21.818Z,1668.00
2018-04-18T04:43:21.706Z,1740.00
2018-04-18T04:44:21.604Z,1764.00
2018-04-18T04:45:21.500Z,1824.00
2018-04-18T04:46:21.411Z,1888.00
2018-04-18T04:47:21.309Z,1920.00
2018-04-18T04:48:21.204Z,1916.00
2018-04-18T04:49:21.100Z,1928.00
2018-04-18T04:50:21.022Z,2108.00
2018-04-18T04:51:20.906Z,2096.00
2018-04-18T04:52:20.803Z,2112.00
2018-04-18T04:53:20.703Z,2152.00
2018-04-18T04:54:20.609Z,2116.00
2018-04-18T04:55:20.505Z,2080.00
2018-04-18T04:56:20.402Z,2256.00
2018-04-18T04:57:20.311Z,2620.00
2018-04-18T04:58:20.211Z,2824.00
2018-04-18T04:59:20.118Z,2932.00
2018-04-18T05:00:20.015Z,3004.00
2018-04-18T05:01:19.912Z,2984.00
2018-04-18T05:02:19.810Z,2736.00
2018-04-18T05:03:19.717Z,2980.00
2018-04-18T05:04:19.613Z,3056.00
2018-04-18T05:05:19.759Z,3132.00
2018-04-18T05:06:19.409Z,3204.00
2018-04-18T05:07:19.316Z,3216.00
2018-04-18T05:08:19.216Z,3224.00
2018-04-18T05:09:19.121Z,3280.00
2018-04-18T05:10:19.020Z,3444.00
2018-04-18T05:11:18.916Z,3676.00
2018-04-18T05:12:18.825Z,3816.00
2018-04-18T05:13:18.721Z,3912.00
2018-04-18T05:14:18.618Z,3984.00
2018-04-18T05:15:18.527Z,3800.00
2018-04-18T05:16:18.423Z,3612.00
2018-04-18T05:17:18.333Z,3896.00
2018-04-18T05:18:18.234Z,4004.00
2018-04-18T05:19:18.140Z,4000.00
2018-04-18T05:20:18.048Z,4024.00
2018-04-18T05:21:17.932Z,4160.00
2018-04-18T05:22:17.843Z,4420.00
2018-04-18T05:23:17.739Z,4544.00
2018-04-18T05:24:17.646Z,4612.00
2018-04-18T05:25:17.544Z,4668.00
2018-04-18T05:26:17.453Z,4748.00
2018-04-18T05:27:17.350Z,4804.00
2018-04-18T05:28:17.258Z,4864.00
2018-04-18T05:29:17.156Z,4916.00
2018-04-18T05:30:17.067Z,4988.00
2018-04-18T05:31:16.962Z,5048.00
2018-04-18T05:32:16.870Z,5040.00
2018-04-18T05:33:16.768Z,4944.00
2018-04-18T05:34:16.676Z,5020.00
2018-04-18T05:35:16.834Z,5148.00
2018-04-18T05:36:16.482Z,5204.00
2018-04-18T05:37:16.398Z,5208.00
2018-04-18T05:38:16.300Z,4564.00
2018-04-18T05:39:16.198Z,4940.00
2018-04-18T05:40:16.107Z,5804.00
2018-04-18T05:41:16.004Z,5864.00
2018-04-18T05:42:15.912Z,5916.00
2018-04-18T05:43:15.823Z,5964.00
2018-04-18T05:44:15.718Z,5992.00
2018-04-18T05:45:15.636Z,6020.00
2018-04-18T05:46:15.539Z,6088.00
2018-04-18T05:47:15.435Z,6136.00
2018-04-18T05:48:15.344Z,6164.00
2018-04-18T05:49:15.253Z,6208.00
2018-04-18T05:50:15.149Z,6300.00
2018-04-18T05:51:15.057Z,6392.00
2018-04-18T05:52:14.961Z,6472.00
2018-04-18T05:53:14.876Z,6516.00
2018-04-18T05:54:14.772Z,6612.00
2018-04-18T05:55:14.710Z,6700.00
2018-04-18T05:56:14.593Z,6788.00
2018-04-18T05:57:14.504Z,6852.00
2018-04-18T05:58:14.397Z,6892.00
2018-04-18T05:59:14.305Z,6948.00
2018-04-18T06:00:14.216Z,7024.00
2018-04-18T06:01:14.124Z,7124.00
2018-04-18T06:02:14.034Z,7196.00
2018-04-18T06:03:13.943Z,7280.00
2018-04-18T06:04:13.839Z,7280.00
2018-04-18T06:05:13.750Z,7344.00
2018-04-18T06:06:13.717Z,7392.00
2018-04-18T06:07:13.568Z,7452.00
2018-04-18T06:08:13.476Z,7508.00
2018-04-18T06:09:13.388Z,7568.00
2018-04-18T06:10:13.294Z,7640.00
2018-04-18T06:11:13.217Z,7740.00
2018-04-18T06:12:13.114Z,7816.00
2018-04-18T06:13:13.010Z,7848.00
2018-04-18T06:14:12.920Z,7904.00
2018-04-18T06:15:12.829Z,7900.00
2018-04-18T06:16:12.738Z,7988.00
2018-04-18T06:17:12.647Z,8072.00
2018-04-18T06:18:12.556Z,8156.00
2018-04-18T06:19:12.503Z,8236.00
2018-04-18T06:20:12.386Z,8312.00
2018-04-18T06:21:12.283Z,8372.00
2018-04-18T06:22:12.194Z,8428.00
2018-04-18T06:23:12.102Z,8500.00
2018-04-18T06:24:12.015Z,8564.00
2018-04-18T06:25:11.920Z,8588.00
2018-04-18T06:26:11.833Z,8640.00
2018-04-18T06:27:11.789Z,8680.00
2018-04-18T06:28:11.660Z,8700.00
2018-04-18T06:29:11.574Z,8796.00
2018-04-18T06:30:11.478Z,8840.00
2018-04-18T06:31:11.388Z,8676.00
2018-04-18T06:32:11.296Z,8700.00
2018-04-18T06:33:11.208Z,9028.00
2018-04-18T06:34:11.117Z,8996.00
2018-04-18T06:35:11.025Z,9044.00
2018-04-18T06:36:10.934Z,9072.00
2018-04-18T06:37:10.844Z,9052.00
2018-04-18T06:38:10.765Z,9056.00
2018-04-18T06:39:10.673Z,9096.00
2018-04-18T06:40:10.583Z,9144.00
2018-04-18T06:41:10.501Z,9216.00
2018-04-18T06:42:10.403Z,9292.00
2018-04-18T06:43:10.311Z,9312.00
2018-04-18T06:44:10.231Z,9380.00
2018-04-18T06:45:10.141Z,9432.00
2018-04-18T06:46:10.051Z,9504.00
2018-04-18T06:47:09.960Z,9576.00
2018-04-18T06:48:09.870Z,9624.00
2018-04-18T06:49:09.793Z,9668.00
2018-04-18T06:50:09.702Z,9752.00
2018-04-18T06:51:09.609Z,9804.00
2018-04-18T06:52:09.518Z,9876.00
2018-04-18T06:53:09.441Z,9908.00
2018-04-18T06:54:09.349Z,9976.00
2018-04-18T06:55:09.259Z,10048.00
2018-04-18T06:56:09.180Z,10104.00
2018-04-18T06:57:09.089Z,10176.00
2018-04-18T06:58:08.999Z,10280.00
2018-04-18T06:59:08.923Z,10332.00
2018-04-18T07:00:08.832Z,10372.00
2018-04-18T07:01:08.745Z,10424.00
2018-04-18T07:02:08.647Z,10492.00
2018-04-18T07:03:08.559Z,10528.00
2018-04-18T07:04:08.479Z,10572.00
2018-04-18T07:05:08.387Z,10688.00
2018-04-18T07:06:08.298Z,10780.00
2018-04-18T07:07:08.219Z,10892.00
2018-04-18T07:08:08.128Z,10992.00
2018-04-18T07:09:08.039Z,11008.00
2018-04-18T07:10:07.961Z,11032.00
2018-04-18T07:11:07.873Z,11024.00
2018-04-18T07:12:07.795Z,11044.00
2018-04-18T07:13:07.701Z,10960.00
2018-04-18T07:14:07.612Z,10440.00
2018-04-18T07:15:07.531Z,9428.00
2018-04-18T07:16:07.439Z,8536.00
2018-04-18T07:17:07.349Z,8212.00
2018-04-18T07:18:07.273Z,8092.00
2018-04-18T07:19:07.179Z,8048.00
2018-04-18T07:20:07.091Z,8032.00
2018-04-18T07:21:07.011Z,7996.00
2018-04-18T07:22:06.920Z,7900.00
2018-04-18T07:23:06.845Z,7800.00
2018-04-18T07:24:06.751Z,7696.00
2018-04-18T07:25:06.661Z,7580.00
2018-04-18T07:26:06.569Z,7536.00
2018-04-18T07:27:06.490Z,7508.00
2018-04-18T07:28:06.404Z,7504.00
2018-04-18T07:29:06.309Z,7484.00
2018-04-18T07:30:06.219Z,7476.00
2018-04-18T07:31:06.141Z,7488.00
2018-04-18T07:32:06.050Z,7492.00
2018-04-18T07:33:05.959Z,7504.00
2018-04-18T07:34:05.871Z,7568.00
2018-04-18T07:35:05.789Z,7608.00
2018-04-18T07:36:05.699Z,7620.00
2018-04-18T07:37:05.607Z,7652.00
2018-04-18T07:38:05.518Z,7688.00
2018-04-18T07:39:05.425Z,7700.00
2018-04-18T07:40:05.398Z,7740.00
2018-04-18T07:41:05.245Z,7772.00
2018-04-18T07:42:05.166Z,7804.00
2018-04-18T07:43:05.076Z,7848.00
2018-04-18T07:44:04.984Z,7872.00
2018-04-18T07:45:04.894Z,7896.00
2018-04-18T07:46:04.802Z,7928.00
2018-04-18T07:47:04.713Z,7956.00
2018-04-18T07:48:04.621Z,7972.00
2018-04-18T07:49:04.530Z,8028.00
2018-04-18T07:50:04.441Z,8056.00
2018-04-18T07:51:04.350Z,8088.00
2018-04-18T07:52:04.258Z,8112.00
2018-04-18T07:53:04.168Z,8148.00
2018-04-18T07:54:04.082Z,8180.00
2018-04-18T07:55:03.998Z,8208.00
2018-04-18T07:56:03.906Z,8232.00
2018-04-18T07:57:03.816Z,8272.00
2018-04-18T07:58:03.727Z,8276.00
2018-04-18T07:59:03.635Z,8264.00
2018-04-18T08:00:03.545Z,8332.00
2018-04-18T08:01:03.453Z,8332.00
2018-04-18T08:02:03.365Z,8352.00
2018-04-18T08:03:03.280Z,8404.00
2018-04-18T08:04:03.181Z,8424.00
2018-04-18T08:05:03.090Z,8432.00
2018-04-18T08:06:02.998Z,8464.00
2018-04-18T08:07:02.907Z,8544.00
2018-04-18T08:08:02.823Z,8540.00
2018-04-18T08:09:02.729Z,8568.00
2018-04-18T08:10:02.624Z,8604.00
2018-04-18T08:11:02.534Z,8640.00
2018-04-18T08:12:02.443Z,8680.00
2018-04-18T08:13:02.351Z,8732.00
2018-04-18T08:14:02.261Z,8768.00
2018-04-18T08:15:02.170Z,8788.00
2018-04-18T08:16:02.090Z,8792.00
2018-04-18T08:17:01.989Z,8820.00
2018-04-18T08:18:01.897Z,8828.00
2018-04-18T08:19:01.806Z,8884.00
2018-04-18T08:20:01.965Z,8856.00
2018-04-18T08:21:01.626Z,8860.00
2018-04-18T08:22:01.535Z,8912.00
2018-04-18T08:23:01.443Z,8932.00
2018-04-18T08:24:01.351Z,8944.00
2018-04-18T08:25:01.261Z,8972.00
2018-04-18T08:26:01.169Z,8988.00
2018-04-18T08:27:01.080Z,9036.00
2018-04-18T08:28:00.989Z,9048.00
2018-04-18T08:29:00.899Z,9072.00
2018-04-18T08:30:00.810Z,9072.00
2018-04-18T08:31:00.717Z,9060.00
2018-04-18T08:32:00.625Z,9132.00
2018-04-18T08:33:00.535Z,9172.00
2018-04-18T08:34:00.484Z,9228.00
2018-04-18T08:35:00.353Z,9204.00
2018-04-18T08:36:00.262Z,9176.00
2018-04-18T08:37:00.172Z,9164.00
2018-04-18T08:38:00.080Z,9204.00
2018-04-18T08:38:59.992Z,9300.00
2018-04-18T08:40:00.149Z,9320.00
2018-04-18T08:40:59.796Z,9352.00
2018-04-18T08:41:59.705Z,9388.00
2018-04-18T08:42:59.617Z,9428.00
2018-04-18T08:43:59.524Z,9452.00
2018-04-18T08:44:59.436Z,9432.00
2018-04-18T08:45:59.341Z,9468.00
2018-04-18T08:46:59.255Z,9452.00
2018-04-18T08:47:59.160Z,9452.00
2018-04-18T08:48:59.081Z,9384.00
2018-04-18T08:49:58.982Z,9372.00
2018-04-18T08:50:58.887Z,9372.00
2018-04-18T08:51:58.796Z,9340.00
2018-04-18T08:52:58.706Z,9316.00
2018-04-18T08:53:58.616Z,9300.00
2018-04-18T08:54:58.523Z,9308.00
2018-04-18T08:55:58.435Z,9360.00
2018-04-18T08:56:58.342Z,9464.00
2018-04-18T08:57:58.251Z,9612.00
2018-04-18T08:58:58.159Z,9768.00
2018-04-18T08:59:58.069Z,9896.00
2018-04-18T09:00:57.982Z,10000.00
2018-04-18T09:01:57.887Z,10088.00
2018-04-18T09:02:57.796Z,10144.00
2018-04-18T09:03:57.709Z,10116.00
2018-04-18T09:04:57.627Z,10040.00
2018-04-18T09:05:57.525Z,9904.00
2018-04-18T09:06:57.433Z,9736.00
2018-04-18T09:07:57.342Z,9572.00
2018-04-18T09:08:57.263Z,9468.00
2018-04-18T09:09:57.160Z,9428.00
2018-04-18T09:10:57.069Z,9452.00
2018-04-18T09:11:56.981Z,9516.00
2018-04-18T09:12:56.887Z,9572.00
2018-04-18T09:13:56.786Z,9600.00
2018-04-18T09:14:56.706Z,9640.00
2018-04-18T09:15:56.617Z,9672.00
2018-04-18T09:16:56.514Z,9764.00
2018-04-18T09:17:56.423Z,9844.00
2018-04-18T09:18:56.343Z,9828.00
2018-04-18T09:19:56.252Z,9848.00
2018-04-18T09:20:56.163Z,9896.00
2018-04-18T09:21:56.070Z,9980.00
2018-04-18T09:22:55.980Z,10012.00
2018-04-18T09:23:55.889Z,10032.00
2018-04-18T09:24:55.797Z,10064.00
2018-04-18T09:25:55.708Z,10088.00
2018-04-18T09:26:55.616Z,10176.00
2018-04-18T09:27:55.526Z,10328.00
2018-04-18T09:28:55.435Z,10632.00
2018-04-18T09:29:55.345Z,12744.00
2018-04-18T09:30:55.252Z,15216.00
2018-04-18T09:31:55.163Z,19008.00
2018-04-18T09:32:55.071Z,19936.00
2018-04-18T09:33:54.980Z,21856.00
2018-04-18T09:34:54.890Z,37536.00
2018-04-18T09:35:54.799Z,48256.00
2018-04-18T09:36:54.707Z,47296.00
2018-04-18T09:37:54.617Z,47232.00
2018-04-18T09:38:54.525Z,47744.00
2018-04-18T09:39:54.436Z,49216.00
2018-04-18T09:40:54.345Z,50848.00
2018-04-18T09:41:54.265Z,52096.00
2018-04-18T09:42:54.178Z,52992.00
2018-04-18T09:43:54.084Z,52320.00
2018-04-18T09:44:53.997Z,50656.00
2018-04-18T09:45:53.918Z,50304.00
2018-04-18T09:46:53.825Z,51232.00
2018-04-18T09:47:53.762Z,50112.00
2018-04-18T09:48:53.656Z,47648.00
2018-04-18T09:49:53.568Z,44352.00
2018-04-18T09:50:53.487Z,41280.00
2018-04-18T09:51:53.408Z,40768.00
2018-04-18T09:52:53.320Z,40192.00
2018-04-18T09:53:53.240Z,39904.00
2018-04-18T09:54:53.149Z,39712.00
2018-04-18T09:55:53.071Z,39072.00
2018-04-18T09:56:53.005Z,37888.00
2018-04-18T09:57:52.901Z,37920.00
2018-04-18T09:58:52.823Z,37984.00
2018-04-18T09:59:52.745Z,37184.00
2018-04-18T10:00:52.668Z,37536.00
2018-04-18T10:01:52.576Z,37856.00
2018-04-18T10:02:52.497Z,37824.00
2018-04-18T10:03:52.419Z,37408.00
2018-04-18T10:04:52.340Z,38016.00
2018-04-18T10:05:52.264Z,37760.00
2018-04-18T10:06:52.183Z,37248.00
2018-04-18T10:07:52.095Z,38112.00
2018-04-18T10:08:52.015Z,40192.00
2018-04-18T10:09:51.938Z,43200.00
2018-04-18T10:10:51.860Z,48000.00
2018-04-18T10:11:51.781Z,49440.00
2018-04-18T10:12:51.698Z,48832.00
2018-04-18T10:13:51.628Z,48992.00
2018-04-18T10:14:51.545Z,49696.00
2018-04-18T10:15:51.468Z,49952.00
2018-04-18T10:16:51.391Z,49920.00
2018-04-18T10:17:51.310Z,50208.00
2018-04-18T10:18:51.232Z,50784.00
2018-04-18T10:19:51.153Z,49984.00
2018-04-18T10:20:51.076Z,49600.00
2018-04-18T10:21:50.997Z,47136.00
2018-04-18T10:22:50.934Z,44064.00
2018-04-18T10:23:50.841Z,39936.00
2018-04-18T10:24:50.762Z,35040.00
2018-04-18T10:25:50.684Z,33920.00
2018-04-18T10:26:50.605Z,35424.00
2018-04-18T10:27:50.527Z,27968.00
2018-04-18T10:28:50.449Z,25088.00
2018-04-18T10:29:50.373Z,27424.00
2018-04-18T10:30:50.291Z,24704.00
2018-04-18T10:31:50.217Z,24576.00
2018-04-18T10:32:50.135Z,28928.00
2018-04-18T10:33:50.057Z,30240.00
2018-04-18T10:34:50.015Z,34656.00
2018-04-18T10:35:49.902Z,35168.00
2018-04-18T10:36:49.825Z,44448.00
2018-04-18T10:37:49.744Z,52576.00
2018-04-18T10:38:49.667Z,48768.00
2018-04-18T10:39:49.574Z,42944.00
2018-04-18T10:40:49.495Z,37120.00
2018-04-18T10:41:49.428Z,32864.00
2018-04-18T10:42:49.338Z,27168.00
2018-04-18T10:43:49.248Z,22112.00
2018-04-18T10:44:49.171Z,18560.00
2018-04-18T10:45:49.091Z,18720.00
2018-04-18T10:46:49.000Z,18336.00
2018-04-18T10:47:48.924Z,16136.00
2018-04-18T10:48:48.843Z,13232.00
2018-04-18T10:49:48.754Z,10648.00
2018-04-18T10:50:48.679Z,10424.00
2018-04-18T10:51:48.587Z,10584.00
2018-04-18T10:52:48.507Z,11192.00
2018-04-18T10:53:48.416Z,11164.00
2018-04-18T10:54:48.340Z,10276.00
2018-04-18T10:55:48.247Z,9776.00
2018-04-18T10:56:48.167Z,9736.00
2018-04-18T10:57:48.079Z,9668.00
2018-04-18T10:58:48.000Z,9640.00
2018-04-18T10:59:47.911Z,9572.00
2018-04-18T11:00:47.829Z,9520.00
2018-04-18T11:01:47.739Z,9460.00
2018-04-18T11:02:47.650Z,9416.00
2018-04-18T11:03:47.570Z,9508.00
2018-04-18T11:04:47.480Z,9556.00
2018-04-18T11:05:47.402Z,9548.00
2018-04-18T11:06:47.304Z,9504.00
2018-04-18T11:07:47.219Z,9464.00
2018-04-18T11:08:47.141Z,9312.00
2018-04-18T11:09:47.050Z,9228.00
2018-04-18T11:10:46.960Z,9204.00
2018-04-18T11:11:46.881Z,9228.00
2018-04-18T11:12:46.790Z,9244.00
2018-04-18T11:13:46.705Z,9232.00
2018-04-18T11:14:46.609Z,9252.00
2018-04-18T11:15:46.530Z,9260.00
2018-04-18T11:16:46.440Z,9352.00
2018-04-18T11:17:46.348Z,9420.00
2018-04-18T11:18:46.319Z,9428.00
2018-04-18T11:19:46.179Z,9444.00
2018-04-18T11:20:46.088Z,9440.00
2018-04-18T11:21:45.998Z,9380.00
2018-04-18T11:22:45.919Z,9296.00
2018-04-18T11:23:45.828Z,9240.00
2018-04-18T11:24:45.738Z,9248.00
2018-04-18T11:25:45.647Z,9176.00
2018-04-18T11:26:45.556Z,9096.00
2018-04-18T11:27:45.465Z,9116.00
2018-04-18T11:28:45.375Z,9108.00
2018-04-18T11:29:45.297Z,9028.00
2018-04-18T11:30:45.205Z,9036.00
2018-04-18T11:31:45.115Z,9192.00
2018-04-18T11:32:45.024Z,9268.00
2018-04-18T11:33:44.934Z,9240.00
2018-04-18T11:34:44.844Z,9232.00
2018-04-18T11:35:44.763Z,9256.00
2018-04-18T11:36:44.675Z,9320.00
2018-04-18T11:37:44.583Z,9336.00
2018-04-18T11:38:44.492Z,9228.00
2018-04-18T11:39:44.444Z,9064.00
2018-04-18T11:40:44.312Z,8928.00
2018-04-18T11:41:44.233Z,8936.00
2018-04-18T11:42:44.142Z,9008.00
2018-04-18T11:43:44.052Z,9108.00
2018-04-18T11:44:43.960Z,9124.00
2018-04-18T11:45:43.870Z,9096.00
2018-04-18T11:46:43.779Z,9032.00
2018-04-18T11:47:43.690Z,8928.00
2018-04-18T11:48:43.610Z,8940.00
2018-04-18T11:49:43.522Z,8960.00
2018-04-18T11:50:43.427Z,8960.00
2018-04-18T11:51:43.336Z,8880.00
2018-04-18T11:52:43.251Z,8852.00
2018-04-18T11:53:43.158Z,8876.00
2018-04-18T11:54:43.064Z,8968.00
2018-04-18T11:55:42.986Z,8976.00
2018-04-18T11:56:42.895Z,8876.00
2018-04-18T11:57:42.804Z,8608.00
2018-04-18T11:58:42.714Z,8356.00
2018-04-18T11:59:42.622Z,8284.00
2018-04-18T12:00:42.532Z,8260.00
2018-04-18T12:01:42.441Z,8264.00
2018-04-18T12:02:42.351Z,8296.00
2018-04-18T12:03:42.273Z,8236.00
2018-04-18T12:04:42.181Z,8104.00
2018-04-18T12:05:42.090Z,8044.00
2018-04-18T12:06:42.000Z,7972.00
2018-04-18T12:07:41.910Z,7988.00
2018-04-18T12:08:41.818Z,8024.00
2018-04-18T12:09:41.727Z,8048.00
2018-04-18T12:10:41.637Z,8116.00
2018-04-18T12:11:41.564Z,8064.00
2018-04-18T12:12:41.469Z,7956.00
2018-04-18T12:13:41.380Z,7856.00
2018-04-18T12:14:41.285Z,7780.00
2018-04-18T12:15:41.194Z,7728.00
2018-04-18T12:16:41.105Z,7692.00
2018-04-18T12:17:41.013Z,7660.00
2018-04-18T12:18:40.922Z,7708.00
2018-04-18T12:19:40.843Z,7736.00
2018-04-18T12:20:40.768Z,7756.00
2018-04-18T12:21:40.665Z,7736.00
2018-04-18T12:22:40.573Z,7700.00
2018-04-18T12:23:40.483Z,7704.00